Time;durP1;ratioP1;P1;durP2;ratioP2;P2;SDS_P1;SDS_P2;PMS_P1;PMS_P2;Temp;Humidity;BMP_temperature;BMP_pressure;BME280_temperature;BME280_humidity;BME280_pressure;Samples;Min_cycle;Max_cycle;Signal;HPM_P1;HPM_P2
2023/04/13 00:03:19;;;;;;;;;;;;;;;6.68;100.00;94627.16;10527878;28;1526;-79
2023/04/13 00:08:22;;;;;;;;;;;;;;;6.61;100.00;94626.66;10520539;28;1124;-79
2023/04/13 00:13:25;;;;;;;;;;;;;;;6.45;100.00;94645.44;10524791;28;1732;-79
2023/04/13 00:18:28;;;;;;;;;;;;;;;6.35;100.00;94652.69;10519280;28;1998;-79
2023/04/13 00:23:30;;;;;;;;;;;;;;;6.30;100.00;94658.06;10519377;28;1132;-80
2023/04/13 00:28:33;;;;;;;;;;;;;;;6.15;100.00;94658.94;10523340;28;1476;-80
2023/04/13 00:33:36;;;;;;;;;;;;;;;6.00;100.00;94669.66;10544444;28;1188;-79
2023/04/13 00:38:38;;;;;;;;;;;;;;;5.78;100.00;94675.25;10535411;28;1910;-81
2023/04/13 00:43:43;;;;;;;;;;;;;;;5.70;100.00;94688.09;10520143;28;1666;-78
2023/04/13 00:48:46;;;;;;;;;;;;;;;5.59;100.00;94678.50;10524483;28;1136;-79
2023/04/13 00:53:50;;;;;;;;;;;;;;;5.71;100.00;94688.88;10530606;28;1392;-81
2023/04/13 00:58:52;;;;;;;;;;;;;;;5.75;100.00;94689.94;10523543;28;1914;-80
2023/04/13 01:03:55;;;;;;;;;;;;;;;5.77;100.00;94685.13;10517224;28;1657;-80
2023/04/13 01:08:58;;;;;;;;;;;;;;;5.83;100.00;94693.94;10519115;28;1396;-80
2023/04/13 01:14:01;;;;;;;;;;;;;;;5.80;100.00;94679.28;10512215;28;1630;-80
2023/04/13 01:19:04;;;;;;;;;;;;;;;5.82;100.00;94685.13;10518694;28;1913;-81
2023/04/13 01:24:07;;;;;;;;;;;;;;;5.78;100.00;94677.94;10525192;28;1143;-80
2023/04/13 01:29:10;;;;;;;;;;;;;;;5.66;100.00;94671.03;10530358;28;1439;-80
2023/04/13 01:34:13;;;;;;;;;;;;;;;5.58;100.00;94670.78;10499132;28;1084;-79
2023/04/13 01:39:16;;;;;;;;;;;;;;;5.62;100.00;94674.50;10446910;28;1088718;-79
2023/04/13 01:44:18;;;;;;;;;;;;;;;5.60;100.00;94676.66;10516777;28;1630;-79
2023/04/13 01:49:21;;;;;;;;;;;;;;;5.55;100.00;94680.13;10526015;28;1455;-80
2023/04/13 01:54:24;;;;;;;;;;;;;;;5.53;100.00;94676.91;10518485;28;1258;-79
2023/04/13 01:59:27;;;;;;;;;;;;;;;5.52;100.00;94683.31;10514128;28;1918;-79
2023/04/13 02:04:30;;;;;;;;;;;;;;;5.52;100.00;94687.84;10519406;28;1155;-79
2023/04/13 02:09:34;;;;;;;;;;;;;;;5.49;100.00;94702.50;10516866;28;1467;-79
2023/04/13 02:14:36;;;;;;;;;;;;;;;5.50;100.00;94697.97;10499782;28;1242;-80
2023/04/13 02:19:38;;;;;;;;;;;;;;;5.55;100.00;94695.31;10521343;28;1960;-80
2023/04/13 02:24:41;;;;;;;;;;;;;;;5.50;100.00;94695.31;10531810;28;1142;-81
2023/04/13 02:29:44;;;;;;;;;;;;;;;5.45;100.00;94716.63;10532666;28;1506;-80
2023/04/13 02:34:48;;;;;;;;;;;;;;;5.46;100.00;94723.56;10492435;28;1132;-78
2023/04/13 02:39:51;;;;;;;;;;;;;;;5.36;100.00;94722.50;10532524;28;1910;-79
2023/04/13 02:44:54;;;;;;;;;;;;;;;5.42;100.00;94728.63;10523197;28;1155;-79
2023/04/13 02:49:56;;;;;;;;;;;;;;;5.33;100.00;94730.22;10516428;28;1515;-80
2023/04/13 02:54:59;;;;;;;;;;;;;;;5.36;100.00;94735.81;10531310;28;1645;-81
2023/04/13 03:00:08;;;;;;;;;;;;;;;5.32;100.00;94736.63;10533151;28;1971;-80
2023/04/13 03:05:11;;;;;;;;;;;;;;;5.28;100.00;94727.53;10527146;28;1143;-80
2023/04/13 03:10:14;;;;;;;;;;;;;;;5.29;100.00;94729.16;10518264;28;1520;-81
2023/04/13 03:15:17;;;;;;;;;;;;;;;5.24;100.00;94715.84;10538292;28;1239;-81
2023/04/13 03:20:22;;;;;;;;;;;;;;;5.21;100.00;94716.34;10530019;28;1988;-78
2023/04/13 03:25:25;;;;;;;;;;;;;;;5.23;100.00;94698.25;10533437;28;1096;-80
2023/04/13 03:30:37;;;;;;;;;;;;;;;5.17;100.00;94689.44;10539405;28;1471;-80
2023/04/13 03:35:40;;;;;;;;;;;;;;;5.10;100.00;94688.91;10521343;28;1144;-80
2023/04/13 03:40:43;;;;;;;;;;;;;;;5.10;100.00;94691.59;10502608;28;1965;-78
2023/04/13 03:45:45;;;;;;;;;;;;;;;5.09;100.00;94703.28;10512648;28;1203;-80
2023/04/13 03:50:47;;;;;;;;;;;;;;;5.07;100.00;94718.72;10523504;28;1467;-79
2023/04/13 03:55:50;;;;;;;;;;;;;;;5.03;100.00;94715.03;10513910;28;1206;-80
2023/04/13 04:00:53;;;;;;;;;;;;;;;5.01;100.00;94719.78;10515003;28;1922;-80
2023/04/13 04:05:56;;;;;;;;;;;;;;;4.95;100.00;94703.00;10533370;28;1597;-79
2023/04/13 04:10:59;;;;;;;;;;;;;;;4.95;100.00;94700.34;10514537;28;1673;-81
2023/04/13 04:16:05;;;;;;;;;;;;;;;4.89;100.00;94696.06;10503739;28;1171;-81
2023/04/13 04:21:10;;;;;;;;;;;;;;;4.85;100.00;94698.47;10523467;28;1930;-80
2023/04/13 04:26:13;;;;;;;;;;;;;;;4.82;100.00;94704.31;10537039;28;1217;-80
2023/04/13 04:31:16;;;;;;;;;;;;;;;4.74;100.00;94714.69;10527839;28;1435;-80
2023/04/13 04:36:20;;;;;;;;;;;;;;;4.71;100.00;94713.34;10519017;28;1084;-78
2023/04/13 04:41:36;;;;;;;;;;;;;;;4.67;100.00;94714.94;10535317;28;1969;-80
2023/04/13 04:46:40;;;;;;;;;;;;;;;4.66;100.00;94715.19;10520084;28;1164;-80
2023/04/13 04:51:43;;;;;;;;;;;;;;;4.67;100.00;94716.78;10526550;28;1497;-80
2023/04/13 04:56:56;;;;;;;;;;;;;;;4.68;100.00;94715.72;10528549;28;1538;-80
2023/04/13 05:02:00;;;;;;;;;;;;;;;4.73;100.00;94715.75;10523826;28;1913;-80
2023/04/13 05:07:03;;;;;;;;;;;;;;;4.73;100.00;94719.22;10535586;28;1411;-79
2023/04/13 05:12:06;;;;;;;;;;;;;;;4.82;100.00;94725.59;10516333;28;1439;-79
2023/04/13 05:17:09;;;;;;;;;;;;;;;4.89;100.00;94710.19;10533464;28;1211;-78
2023/04/13 05:22:13;;;;;;;;;;;;;;;4.93;100.00;94712.31;10509918;28;1982;-78
2023/04/13 05:27:16;;;;;;;;;;;;;;;5.01;100.00;94719.78;10532619;28;1530;-79
2023/04/13 05:32:19;;;;;;;;;;;;;;;5.02;100.00;94722.19;10527188;28;1128;-81
2023/04/13 05:37:23;;;;;;;;;;;;;;;5.14;100.00;94735.25;10532639;28;1455;-81
2023/04/13 05:42:25;;;;;;;;;;;;;;;5.14;100.00;94736.06;10509774;28;1906;-80
2023/04/13 05:47:28;;;;;;;;;;;;;;;5.22;100.00;94750.75;10518640;28;1113;-81
2023/04/13 05:52:31;;;;;;;;;;;;;;;5.36;100.00;94748.34;10526005;28;1408;-80
2023/04/13 05:57:33;;;;;;;;;;;;;;;5.38;100.00;94755.00;10527631;28;1226;-80
2023/04/13 06:02:38;;;;;;;;;;;;;;;5.57;100.00;94765.94;10526076;28;1909;-81
2023/04/13 06:07:43;;;;;;;;;;;;;;;5.46;100.00;94776.84;10530133;28;1121;-80
2023/04/13 06:12:47;;;;;;;;;;;;;;;5.53;100.00;94766.72;10524106;28;1618;-79
2023/04/13 06:17:50;;;;;;;;;;;;;;;5.53;100.00;94782.72;10525168;28;1427;-80
2023/04/13 06:22:53;;;;;;;;;;;;;;;5.62;100.00;94800.59;10516257;28;1977;-81
2023/04/13 06:27:56;;;;;;;;;;;;;;;5.85;100.00;94788.63;10544628;28;1451;-82
2023/04/13 06:32:58;;;;;;;;;;;;;;;6.07;100.00;94793.69;10542138;28;1332;-81
2023/04/13 06:38:01;;;;;;;;;;;;;;;6.30;100.00;94787.00;10548578;28;1556;-81
2023/04/13 06:43:04;;;;;;;;;;;;;;;6.53;100.00;94784.78;10542038;28;1973;-81
2023/04/13 06:48:15;;;;;;;;;;;;;;;6.65;100.00;94777.25;10534078;28;1052;-81
2023/04/13 06:53:18;;;;;;;;;;;;;;;6.34;100.00;94781.91;10552750;28;1669;-82
2023/04/13 06:58:22;;;;;;;;;;;;;;;6.76;100.00;94776.16;10536609;28;1910;-82
2023/04/13 07:03:24;;;;;;;;;;;;;;;6.88;100.00;94773.19;10543171;28;1796;-82
2023/04/13 07:08:32;;;;;;;;;;;;;;;7.13;100.00;94777.59;10550786;28;1167;-80
2023/04/13 07:13:34;;;;;;;;;;;;;;;7.56;100.00;94766.06;10541483;28;1550;-80
2023/04/13 07:18:37;;;;;;;;;;;;;;;7.37;100.00;94762.44;10539692;28;1902;-80
2023/04/13 07:23:41;;;;;;;;;;;;;;;7.88;100.00;94767.41;10532154;28;1214;-79
2023/04/13 07:28:44;;;;;;;;;;;;;;;8.08;100.00;94766.47;10523301;28;1486;-82
2023/04/13 07:33:46;;;;;;;;;;;;;;;8.44;100.00;94764.22;10532964;28;1143;-80
2023/04/13 07:38:49;;;;;;;;;;;;;;;8.49;100.00;94766.88;10545266;28;1897;-80
2023/04/13 07:43:51;;;;;;;;;;;;;;;8.66;100.00;94756.50;10550346;28;1712;-81
2023/04/13 07:48:54;;;;;;;;;;;;;;;8.61;100.00;94756.56;10560266;28;1148;-82
2023/04/13 07:53:56;;;;;;;;;;;;;;;8.44;100.00;94750.84;10562262;28;1179;-80
2023/04/13 07:58:59;;;;;;;;;;;;;;;8.69;100.00;94759.69;10555982;28;1886;-79
2023/04/13 08:04:02;;;;;;;;;;;;;;;8.96;100.00;94756.38;10566056;28;1542;-81
2023/04/13 08:09:06;;;;;;;;;;;;;;;9.26;100.00;94753.31;10557836;28;1443;-83
2023/04/13 08:14:10;;;;;;;;;;;;;;;9.64;100.00;94742.56;10559713;28;1864;-79
2023/04/13 08:19:13;;;;;;;;;;;;;;;9.29;100.00;94741.19;10539408;28;1913;-80
2023/04/13 08:24:15;;;;;;;;;;;;;;;9.04;100.00;94756.56;10557766;28;1120;-79
2023/04/13 08:29:22;;;;;;;;;;;;;;;9.25;100.00;94745.56;10546941;28;2111;-79
2023/04/13 08:34:26;;;;;;;;;;;;;;;9.01;100.00;94757.13;10554020;28;1231;-81
2023/04/13 08:39:28;;;;;;;;;;;;;;;9.16;100.00;94746.22;10554623;28;1899;-79
2023/04/13 08:44:31;;;;;;;;;;;;;;;9.82;100.00;94739.03;10552931;28;1113;-79
2023/04/13 08:49:34;;;;;;;;;;;;;;;9.60;100.00;94730.81;10523915;28;1420;-81
2023/04/13 08:54:37;;;;;;;;;;;;;;;9.66;98.04;94729.63;10536578;28;1187;-81
2023/04/13 08:59:41;;;;;;;;;;;;;;;9.86;88.44;94732.00;10526906;28;1913;-79
2023/04/13 09:04:44;;;;;;;;;;;;;;;9.75;90.13;94736.75;10530634;28;1336;-80
2023/04/13 09:09:47;;;;;;;;;;;;;;;10.05;88.60;94729.25;10505990;28;1889;-80
2023/04/13 09:14:50;;;;;;;;;;;;;;;9.52;79.72;94728.78;10528264;28;1178;-80
2023/04/13 09:19:53;;;;;;;;;;;;;;;9.83;84.44;94729.91;10530338;28;1913;-79
2023/04/13 09:24:55;;;;;;;;;;;;;;;10.28;84.75;94730.22;10522984;28;1262;-80
2023/04/13 09:30:00;;;;;;;;;;;;;;;10.71;78.75;94729.94;10517791;28;1506;-80
2023/04/13 09:35:04;;;;;;;;;;;;;;;11.20;72.38;94718.44;10530754;28;1675;-80
2023/04/13 09:40:08;;;;;;;;;;;;;;;11.36;74.71;94711.59;10525661;28;1913;-81
2023/04/13 09:45:11;;;;;;;;;;;;;;;11.79;68.49;94708.44;10534430;28;1324;-79
2023/04/13 09:50:14;;;;;;;;;;;;;;;12.01;67.21;94696.06;10561340;28;1463;-80
2023/04/13 09:55:17;;;;;;;;;;;;;;;12.48;63.73;94699.16;10561224;28;1487;-80
2023/04/13 10:00:20;;;;;;;;;;;;;;;12.29;62.10;94700.19;10538001;28;1913;-81
2023/04/13 10:05:25;;;;;;;;;;;;;;;12.27;64.91;94685.44;10525863;28;1459;-79
2023/04/13 10:10:30;;;;;;;;;;;;;;;12.47;65.71;94676.00;10517538;28;1569;-80
2023/04/13 10:15:32;;;;;;;;;;;;;;;11.94;64.17;94685.75;10530427;28;1498;-79
2023/04/13 10:20:36;;;;;;;;;;;;;;;11.84;68.31;94681.44;10526706;28;1914;-81
2023/04/13 10:25:40;;;;;;;;;;;;;;;12.29;63.23;94669.75;10547609;28;2097;-80
2023/04/13 10:30:42;;;;;;;;;;;;;;;12.26;61.46;94668.47;10521934;28;1928;-80
2023/04/13 10:35:45;;;;;;;;;;;;;;;12.31;62.05;94671.03;10517939;28;1171;-80
2023/04/13 10:40:49;;;;;;;;;;;;;;;11.69;56.15;94672.88;10523176;28;1914;-79
2023/04/13 10:45:53;;;;;;;;;;;;;;;10.65;54.70;94664.75;10515688;28;1714;-80
2023/04/13 10:50:55;;;;;;;;;;;;;;;10.89;57.79;94644.91;10540282;28;1432;-80
2023/04/13 10:55:58;;;;;;;;;;;;;;;10.85;57.99;94646.59;10537438;28;1171;-81
2023/04/13 11:01:02;;;;;;;;;;;;;;;11.24;57.38;94665.59;10534633;28;1963;-80
2023/04/13 11:06:04;;;;;;;;;;;;;;;11.15;61.91;94661.25;10520228;28;1452;-80
2023/04/13 11:11:07;;;;;;;;;;;;;;;11.48;59.12;94665.31;10524887;28;1501;-80
2023/04/13 11:16:16;;;;;;;;;;;;;;;11.25;57.50;94666.38;10525821;28;1108;-80
2023/04/13 11:21:18;;;;;;;;;;;;;;;10.42;58.97;94679.97;10527370;28;1977;-79
2023/04/13 11:26:23;;;;;;;;;;;;;;;10.73;60.99;94677.47;10532207;28;1473;-78
2023/04/13 11:31:26;;;;;;;;;;;;;;;10.40;62.84;94671.44;10528976;28;1451;-80
2023/04/13 11:36:31;;;;;;;;;;;;;;;10.78;64.40;94669.31;10522253;28;1870;-80
2023/04/13 11:41:33;;;;;;;;;;;;;;;10.62;60.74;94670.72;10537763;28;1906;-80
2023/04/13 11:46:36;;;;;;;;;;;;;;;10.65;62.18;94662.06;10547454;28;1199;-81
2023/04/13 11:51:39;;;;;;;;;;;;;;;11.01;62.06;94659.41;10531592;28;1444;-79
2023/04/13 11:56:41;;;;;;;;;;;;;;;10.49;63.14;94666.94;10521328;28;1167;-80
2023/04/13 12:01:44;;;;;;;;;;;;;;;10.69;63.51;94671.13;10512659;28;1918;-79
2023/04/13 12:06:54;;;;;;;;;;;;;;;10.36;62.02;94661.56;10516631;28;1045;-79
2023/04/13 12:11:57;;;;;;;;;;;;;;;10.33;61.95;94665.66;10539550;28;1491;-80
2023/04/13 12:17:19;;;;;;;;;;;;;;;10.20;62.38;94667.22;10532099;28;1104;-80
2023/04/13 12:22:25;;;;;;;;;;;;;;;10.22;62.60;94666.91;10528597;28;1909;-81
2023/04/13 12:27:28;;;;;;;;;;;;;;;10.15;61.60;94670.00;10550313;28;1159;-80
2023/04/13 12:32:31;;;;;;;;;;;;;;;9.93;61.29;94669.88;10541085;28;1464;-80
2023/04/13 12:37:33;;;;;;;;;;;;;;;10.00;66.02;94672.97;10524076;28;1118;-81
2023/04/13 12:42:36;;;;;;;;;;;;;;;9.95;65.46;94671.16;10519821;28;1902;-81
2023/04/13 12:47:39;;;;;;;;;;;;;;;9.51;66.95;94689.66;10510508;28;1125;-80
2023/04/13 12:52:41;;;;;;;;;;;;;;;9.27;72.74;94698.59;10527269;28;1463;-82
2023/04/13 12:57:44;;;;;;;;;;;;;;;9.05;84.06;94698.38;10510924;28;1459;-81
2023/04/13 13:02:47;;;;;;;;;;;;;;;8.71;95.14;94694.00;10527670;28;1968;-81
2023/04/13 13:07:57;;;;;;;;;;;;;;;8.64;96.80;94697.03;10527001;28;1432;-80
2023/04/13 13:13:02;;;;;;;;;;;;;;;8.42;100.00;94685.28;10517200;28;1889;-81
2023/04/13 13:18:06;;;;;;;;;;;;;;;8.37;100.00;94694.94;10526798;28;1818;-80
2023/04/13 13:23:09;;;;;;;;;;;;;;;8.13;100.00;94702.94;10523497;28;1909;-80
2023/04/13 13:28:12;;;;;;;;;;;;;;;8.08;100.00;94694.19;10534057;28;1483;-80
2023/04/13 13:33:16;;;;;;;;;;;;;;;8.24;100.00;94698.28;10510114;28;1136;-80
2023/04/13 13:38:19;;;;;;;;;;;;;;;8.75;100.00;94686.97;10533892;28;1719;-81
2023/04/13 13:43:22;;;;;;;;;;;;;;;9.10;100.00;94696.44;10526221;28;1902;-81
2023/04/13 13:48:26;;;;;;;;;;;;;;;9.67;100.00;94694.47;10522923;28;1530;-79
2023/04/13 13:53:30;;;;;;;;;;;;;;;9.86;100.00;94705.16;10518419;28;1564;-78
2023/04/13 13:58:33;;;;;;;;;;;;;;;9.27;91.39;94692.44;10527868;28;1432;-80
2023/04/13 14:03:36;;;;;;;;;;;;;;;9.26;94.73;94688.16;10520549;28;1972;-81
2023/04/13 14:08:38;;;;;;;;;;;;;;;10.17;94.00;94680.44;10502652;28;1436;-81
2023/04/13 14:13:41;;;;;;;;;;;;;;;11.03;83.59;94676.03;10538025;28;1831;-81
2023/04/13 14:18:44;;;;;;;;;;;;;;;10.51;76.37;94663.97;10525418;28;1132;-80
2023/04/13 14:23:50;;;;;;;;;;;;;;;11.18;74.67;94666.81;10531446;28;1914;-78
2023/04/13 14:28:53;;;;;;;;;;;;;;;11.22;73.36;94683.94;10514748;28;1485;-81
2023/04/13 14:33:55;;;;;;;;;;;;;;;11.32;73.49;94683.72;10522415;28;1472;-81
2023/04/13 14:39:09;;;;;;;;;;;;;;;11.31;74.13;94692.88;10533666;28;1128;-80
2023/04/13 14:44:12;;;;;;;;;;;;;;;11.02;72.47;94700.53;10528185;28;1971;-80
2023/04/13 14:49:16;;;;;;;;;;;;;;;10.75;71.27;94679.84;10539892;28;1530;-80
2023/04/13 14:54:28;;;;;;;;;;;;;;;10.72;77.75;94664.34;10544447;28;1315;-79
2023/04/13 14:59:31;;;;;;;;;;;;;;;10.84;79.84;94653.88;10533689;28;1570;-79
2023/04/13 15:04:35;;;;;;;;;;;;;;;10.73;79.84;94642.53;10524926;28;1890;-78
2023/04/13 15:09:39;;;;;;;;;;;;;;;10.06;78.05;94647.63;10545341;28;1715;-80
2023/04/13 15:14:45;;;;;;;;;;;;;;;9.56;83.75;94673.47;10544965;28;1195;-80
2023/04/13 15:19:48;;;;;;;;;;;;;;;9.51;85.35;94701.16;10514191;28;1515;-79
2023/04/13 15:24:51;;;;;;;;;;;;;;;9.54;84.89;94695.22;10528582;28;1913;-81
2023/04/13 15:29:54;;;;;;;;;;;;;;;9.72;80.75;94696.25;10517807;28;1645;-79
2023/04/13 15:34:57;;;;;;;;;;;;;;;9.70;78.99;94701.13;10539393;28;1171;-80
2023/04/13 15:40:00;;;;;;;;;;;;;;;9.29;79.70;94700.97;10519801;28;1630;-79
2023/04/13 15:45:09;;;;;;;;;;;;;;;9.05;83.02;94701.88;10525871;28;1977;-80
2023/04/13 15:50:12;;;;;;;;;;;;;;;9.29;87.21;94698.28;10525401;28;1443;-80
2023/04/13 15:55:16;;;;;;;;;;;;;;;9.34;88.57;94687.47;10533500;28;1139;-80
2023/04/13 16:00:18;;;;;;;;;;;;;;;8.95;100.00;94683.22;10524186;28;1472;-81
2023/04/13 16:05:21;;;;;;;;;;;;;;;8.86;100.00;94679.63;10521941;28;1905;-80
2023/04/13 16:10:24;;;;;;;;;;;;;;;8.70;100.00;94696.97;10517022;28;1459;-78
2023/04/13 16:15:27;;;;;;;;;;;;;;;8.85;97.22;94702.16;10539385;28;1109;-80
2023/04/13 16:20:31;;;;;;;;;;;;;;;8.83;97.75;94707.78;10540712;28;1569;-79
2023/04/13 16:25:34;;;;;;;;;;;;;;;8.71;100.00;94709.28;10540877;28;1988;-79
2023/04/13 16:30:38;;;;;;;;;;;;;;;8.72;100.00;94700.19;10529693;28;1526;-79
2023/04/13 16:35:44;;;;;;;;;;;;;;;8.67;100.00;94711.75;10530515;28;1179;-80
2023/04/13 16:40:47;;;;;;;;;;;;;;;8.25;100.00;94718.63;10521399;28;1560;-79
2023/04/13 16:45:50;;;;;;;;;;;;;;;8.17;100.00;94726.47;10537337;28;1471;-79
2023/04/13 16:50:53;;;;;;;;;;;;;;;8.13;100.00;94739.63;10538584;28;1116;-80
2023/04/13 16:55:57;;;;;;;;;;;;;;;8.07;100.00;94749.56;10528260;28;1578;-81
2023/04/13 17:01:00;;;;;;;;;;;;;;;8.02;100.00;94743.50;10536613;28;1924;-80
2023/04/13 17:06:02;;;;;;;;;;;;;;;7.81;100.00;94746.34;10528788;28;1634;-80
2023/04/13 17:11:06;;;;;;;;;;;;;;;7.70;100.00;94750.19;10536390;28;1932;-80
2023/04/13 17:16:09;;;;;;;;;;;;;;;7.54;100.00;94752.19;10516649;28;1357;-78
2023/04/13 17:21:12;;;;;;;;;;;;;;;7.52;100.00;94754.34;10527731;28;1914;-81
2023/04/13 17:26:15;;;;;;;;;;;;;;;7.51;100.00;94738.59;10514901;28;1503;-80
2023/04/13 17:31:18;;;;;;;;;;;;;;;7.48;100.00;94731.09;10532751;28;1191;-80
2023/04/13 17:36:21;;;;;;;;;;;;;;;7.42;100.00;94733.00;10521499;28;1490;-81
2023/04/13 17:41:34;;;;;;;;;;;;;;;7.28;100.00;94732.03;10519898;28;1975;-81
2023/04/13 17:46:36;;;;;;;;;;;;;;;7.09;100.00;94736.44;10525276;28;1184;-79
2023/04/13 17:51:39;;;;;;;;;;;;;;;6.97;100.00;94742.91;10529007;28;1634;-79
2023/04/13 17:56:46;;;;;;;;;;;;;;;6.82;100.00;94756.38;10515998;28;1566;-81
2023/04/13 18:01:49;;;;;;;;;;;;;;;6.73;100.00;94768.69;10538627;28;1901;-78
2023/04/13 18:06:55;;;;;;;;;;;;;;;6.64;100.00;94768.47;10538272;28;1164;-80
2023/04/13 18:11:58;;;;;;;;;;;;;;;6.57;100.00;94773.28;10531145;28;1626;-81
2023/04/13 18:17:00;;;;;;;;;;;;;;;6.40;100.00;94781.59;10548982;28;1132;-81
2023/04/13 18:22:03;;;;;;;;;;;;;;;6.30;100.00;94781.66;10525824;28;1902;-80
2023/04/13 18:27:06;;;;;;;;;;;;;;;6.16;100.00;94788.59;10534959;28;1124;-81
2023/04/13 18:32:09;;;;;;;;;;;;;;;6.05;100.00;94790.50;10535759;28;1499;-80
2023/04/13 18:37:11;;;;;;;;;;;;;;;6.01;100.00;94801.97;10539024;28;1534;-80
2023/04/13 18:42:14;;;;;;;;;;;;;;;5.88;100.00;94804.06;10525253;28;1973;-81
2023/04/13 18:47:16;;;;;;;;;;;;;;;5.79;100.00;94808.34;10543927;28;1701;-80
2023/04/13 18:52:24;;;;;;;;;;;;;;;5.74;100.00;94803.03;10544901;28;1721;-82
2023/04/13 18:57:29;;;;;;;;;;;;;;;5.61;100.00;94808.88;10543897;28;1963;-79
2023/04/13 19:02:31;;;;;;;;;;;;;;;5.58;100.00;94801.41;10534684;28;1909;-82
2023/04/13 19:07:35;;;;;;;;;;;;;;;5.59;100.00;94797.66;10516468;28;1518;-79
2023/04/13 19:12:38;;;;;;;;;;;;;;;5.50;100.00;94801.94;10528506;28;1404;-79
2023/04/13 19:17:42;;;;;;;;;;;;;;;5.42;100.00;94801.41;10516756;28;1463;-80
2023/04/13 19:22:45;;;;;;;;;;;;;;;5.42;100.00;94820.06;10532480;28;1947;-80
2023/04/13 19:27:48;;;;;;;;;;;;;;;5.46;100.00;94824.84;10548460;28;1582;-80
2023/04/13 19:32:53;;;;;;;;;;;;;;;5.48;100.00;94836.84;10533784;28;1197;-79
2023/04/13 19:37:56;;;;;;;;;;;;;;;5.53;100.00;94831.50;10530871;28;1479;-78
2023/04/13 19:42:59;;;;;;;;;;;;;;;5.55;100.00;94834.72;10521477;28;1977;-79
2023/04/13 19:48:01;;;;;;;;;;;;;;;5.60;100.00;94828.63;10523403;28;1431;-78
2023/04/13 19:53:05;;;;;;;;;;;;;;;5.54;100.00;94832.34;10534503;28;1262;-81
2023/04/13 19:58:08;;;;;;;;;;;;;;;5.57;100.00;94829.91;10537776;28;1448;-79
2023/04/13 20:03:11;;;;;;;;;;;;;;;5.50;100.00;94825.91;10533089;28;1965;-78
2023/04/13 20:08:15;;;;;;;;;;;;;;;5.42;100.00;94841.38;10517212;28;1124;-81
2023/04/13 20:13:18;;;;;;;;;;;;;;;5.31;100.00;94837.06;10529253;28;1653;-81
2023/04/13 20:18:22;;;;;;;;;;;;;;;5.15;100.00;94825.59;10529341;28;1475;-79
2023/04/13 20:23:25;;;;;;;;;;;;;;;4.98;100.00;94829.53;10530691;28;1976;-81
2023/04/13 20:28:32;;;;;;;;;;;;;;;4.95;100.00;94824.72;10495977;28;1484;-79
2023/04/13 20:33:35;;;;;;;;;;;;;;;4.97;100.00;94833.25;10537730;28;1184;-79
2023/04/13 20:38:41;;;;;;;;;;;;;;;4.78;100.00;94836.38;10524318;28;1463;-82
2023/04/13 20:43:43;;;;;;;;;;;;;;;4.75;100.00;94844.06;10517178;28;1976;-83
2023/04/13 20:48:50;;;;;;;;;;;;;;;4.76;100.00;94858.97;10538924;28;1376;-82
2023/04/13 20:53:52;;;;;;;;;;;;;;;4.77;100.00;94864.06;10527077;28;1271;-82
2023/04/13 20:58:56;;;;;;;;;;;;;;;4.82;100.00;94857.94;10549069;28;1567;-84
2023/04/13 21:03:59;;;;;;;;;;;;;;;4.76;100.00;94866.97;10526991;28;1959;-81
2023/04/13 21:09:04;;;;;;;;;;;;;;;4.69;100.00;94855.75;10530639;28;1563;-83
2023/04/13 21:14:07;;;;;;;;;;;;;;;4.64;100.00;94850.41;10536465;28;1586;-83
2023/04/13 21:19:09;;;;;;;;;;;;;;;4.64;100.00;94840.53;10546663;28;1474;-82
2023/04/13 21:24:12;;;;;;;;;;;;;;;4.57;100.00;94837.31;10546309;28;1921;-84
2023/04/13 21:29:18;;;;;;;;;;;;;;;4.59;100.00;94827.25;10560664;28;1508;-82
2023/04/13 21:34:25;;;;;;;;;;;;;;;4.49;100.00;94824.50;10543414;28;1166;-82
2023/04/13 21:39:28;;;;;;;;;;;;;;;4.43;100.00;94813.03;10522652;28;1767;-82
2023/04/13 21:44:30;;;;;;;;;;;;;;;4.45;100.00;94818.09;10546489;28;1977;-82
2023/04/13 21:49:33;;;;;;;;;;;;;;;4.41;100.00;94809.03;10531103;28;1507;-82
2023/04/13 21:54:46;;;;;;;;;;;;;;;4.26;100.00;94807.06;10526906;28;1607;-80
2023/04/13 21:59:49;;;;;;;;;;;;;;;4.36;100.00;94809.81;10533877;28;1464;-81
2023/04/13 22:04:51;;;;;;;;;;;;;;;4.30;100.00;94801.00;10527681;28;1913;-81
2023/04/13 22:09:54;;;;;;;;;;;;;;;4.34;100.00;94788.78;10526170;28;1452;-81
2023/04/13 22:14:57;;;;;;;;;;;;;;;4.30;100.00;94803.66;10532980;28;1482;-79
2023/04/13 22:20:00;;;;;;;;;;;;;;;4.29;100.00;94806.56;10526700;28;1424;-81
2023/04/13 22:25:12;;;;;;;;;;;;;;;4.27;100.00;94801.53;10527876;28;1979;-80
2023/04/13 22:30:15;;;;;;;;;;;;;;;4.30;100.00;94808.97;10540711;28;1455;-80
2023/04/13 22:35:18;;;;;;;;;;;;;;;4.36;100.00;94801.81;10535240;28;1136;-81
2023/04/13 22:40:31;;;;;;;;;;;;;;;4.27;100.00;94809.50;10524979;28;1630;-78
2023/04/13 22:45:33;;;;;;;;;;;;;;;4.27;100.00;94806.84;10510066;28;1914;-82
2023/04/13 22:50:37;;;;;;;;;;;;;;;4.27;100.00;94814.81;10542436;28;1495;-81
2023/04/13 22:55:40;;;;;;;;;;;;;;;4.28;100.00;94813.75;10532666;28;1144;-81
2023/04/13 23:00:43;;;;;;;;;;;;;;;4.21;100.00;94815.84;10544197;28;1597;-81
2023/04/13 23:05:54;;;;;;;;;;;;;;;4.22;100.00;94819.31;10536998;28;1918;-80
2023/04/13 23:10:57;;;;;;;;;;;;;;;4.18;100.00;94815.56;10515698;28;1566;-81
2023/04/13 23:16:00;;;;;;;;;;;;;;;4.04;100.00;94816.00;10527930;28;1478;-81
2023/04/13 23:21:12;;;;;;;;;;;;;;;3.92;100.00;94819.91;10542661;28;1128;-81
2023/04/13 23:26:14;;;;;;;;;;;;;;;3.84;100.00;94815.06;10541290;28;1993;-82
2023/04/13 23:31:17;;;;;;;;;;;;;;;3.82;100.00;94815.31;10525766;28;1312;-81
2023/04/13 23:36:19;;;;;;;;;;;;;;;3.75;100.00;94812.88;10516015;28;1195;-82
2023/04/13 23:41:22;;;;;;;;;;;;;;;3.82;100.00;94811.84;10539393;28;1502;-79
2023/04/13 23:46:24;;;;;;;;;;;;;;;3.77;100.00;94816.06;10531280;28;1918;-81
2023/04/13 23:51:28;;;;;;;;;;;;;;;3.80;100.00;94809.44;10516366;28;1566;-81
2023/04/13 23:56:32;;;;;;;;;;;;;;;3.81;100.00;94811.03;10517023;28;1157;-82
